sensor_id;sensor_type;location;lat;lon;timestamp;pressure;altitude;pressure_sealevel;temperature;humidity
73085;BME280;62974;49.460;10.892;2023-05-11T00:00:39;97536.38;;;13.04;97.29
73085;BME280;62974;49.460;10.892;2023-05-11T00:03:07;97539.56;;;12.95;98.93
73085;BME280;62974;49.460;10.892;2023-05-11T00:05:36;97539.63;;;12.88;99.71
73085;BME280;62974;49.460;10.892;2023-05-11T00:08:03;97544.13;;;12.94;98.91
73085;BME280;62974;49.460;10.892;2023-05-11T00:10:31;97548.31;;;12.90;100.00
73085;BME280;62974;49.460;10.892;2023-05-11T00:12:58;97541.41;;;12.94;98.34
73085;BME280;62974;49.460;10.892;2023-05-11T00:15:26;97542.53;;;12.87;99.95
73085;BME280;62974;49.460;10.892;2023-05-11T00:17:53;97544.94;;;12.95;98.98
73085;BME280;62974;49.460;10.892;2023-05-11T00:20:21;97532.22;;;13.02;97.86
73085;BME280;62974;49.460;10.892;2023-05-11T00:22:50;97528.31;;;12.98;98.07
73085;BME280;62974;49.460;10.892;2023-05-11T00:25:18;97529.38;;;12.97;97.79
73085;BME280;62974;49.460;10.892;2023-05-11T00:27:45;97520.22;;;12.98;98.34
73085;BME280;62974;49.460;10.892;2023-05-11T00:30:13;97519.81;;;13.01;97.21
73085;BME280;62974;49.460;10.892;2023-05-11T00:32:42;97524.44;;;12.94;97.63
73085;BME280;62974;49.460;10.892;2023-05-11T00:35:10;97530.22;;;12.97;97.56
73085;BME280;62974;49.460;10.892;2023-05-11T00:37:38;97529.88;;;12.87;98.63
73085;BME280;62974;49.460;10.892;2023-05-11T00:40:08;97515.75;;;12.92;98.17
73085;BME280;62974;49.460;10.892;2023-05-11T00:42:36;97526.34;;;12.87;98.57
73085;BME280;62974;49.460;10.892;2023-05-11T00:45:05;97520.31;;;12.91;98.10
73085;BME280;62974;49.460;10.892;2023-05-11T00:47:33;97516.41;;;12.87;98.21
73085;BME280;62974;49.460;10.892;2023-05-11T00:50:01;97515.47;;;12.75;97.70
73085;BME280;62974;49.460;10.892;2023-05-11T00:52:28;97509.59;;;12.85;97.68
73085;BME280;62974;49.460;10.892;2023-05-11T00:54:56;97519.56;;;12.84;98.07
73085;BME280;62974;49.460;10.892;2023-05-11T00:57:25;97510.19;;;12.87;97.54
73085;BME280;62974;49.460;10.892;2023-05-11T00:59:53;97517.53;;;12.80;98.60
73085;BME280;62974;49.460;10.892;2023-05-11T01:02:20;97518.13;;;12.82;97.43
73085;BME280;62974;49.460;10.892;2023-05-11T01:04:48;97525.28;;;12.69;98.49
73085;BME280;62974;49.460;10.892;2023-05-11T01:07:18;97523.00;;;12.66;99.12
73085;BME280;62974;49.460;10.892;2023-05-11T01:09:54;97526.22;;;12.57;99.79
73085;BME280;62974;49.460;10.892;2023-05-11T01:12:37;97528.47;;;12.60;99.95
73085;BME280;62974;49.460;10.892;2023-05-11T01:15:09;97519.94;;;12.63;99.32
73085;BME280;62974;49.460;10.892;2023-05-11T01:17:43;97528.69;;;12.58;100.00
73085;BME280;62974;49.460;10.892;2023-05-11T01:20:16;97527.25;;;12.56;100.00
73085;BME280;62974;49.460;10.892;2023-05-11T01:22:58;97523.81;;;12.49;100.00
73085;BME280;62974;49.460;10.892;2023-05-11T01:25:40;97526.50;;;12.49;100.00
73085;BME280;62974;49.460;10.892;2023-05-11T01:28:29;97524.78;;;12.54;99.83
73085;BME280;62974;49.460;10.892;2023-05-11T01:31:09;97528.94;;;12.50;99.19
73085;BME280;62974;49.460;10.892;2023-05-11T01:36:24;97531.88;;;12.49;100.00
73085;BME280;62974;49.460;10.892;2023-05-11T01:38:56;97532.06;;;12.54;99.67
73085;BME280;62974;49.460;10.892;2023-05-11T01:41:27;97528.56;;;12.47;100.00
73085;BME280;62974;49.460;10.892;2023-05-11T01:43:59;97526.50;;;12.49;100.00
73085;BME280;62974;49.460;10.892;2023-05-11T01:46:31;97530.84;;;12.50;100.00
73085;BME280;62974;49.460;10.892;2023-05-11T01:49:02;97528.75;;;12.52;100.00
73085;BME280;62974;49.460;10.892;2023-05-11T01:51:35;97528.47;;;12.60;100.00
73085;BME280;62974;49.460;10.892;2023-05-11T01:54:05;97527.81;;;12.64;100.00
73085;BME280;62974;49.460;10.892;2023-05-11T01:56:34;97532.53;;;12.44;100.00
73085;BME280;62974;49.460;10.892;2023-05-11T01:59:02;97525.19;;;12.58;100.00
73085;BME280;62974;49.460;10.892;2023-05-11T02:01:33;97531.38;;;12.58;100.00
73085;BME280;62974;49.460;10.892;2023-05-11T02:04:02;97526.81;;;12.59;99.21
73085;BME280;62974;49.460;10.892;2023-05-11T02:06:31;97524.78;;;12.54;99.32
73085;BME280;62974;49.460;10.892;2023-05-11T02:09:01;97520.44;;;12.53;98.43
73085;BME280;62974;49.460;10.892;2023-05-11T02:11:29;97528.94;;;12.50;98.11
73085;BME280;62974;49.460;10.892;2023-05-11T02:13:59;97527.16;;;12.44;99.53
73085;BME280;62974;49.460;10.892;2023-05-11T02:16:27;97519.00;;;12.51;98.96
73085;BME280;62974;49.460;10.892;2023-05-11T02:18:59;97527.53;;;12.48;99.53
73085;BME280;62974;49.460;10.892;2023-05-11T02:21:27;97516.16;;;12.46;99.00
73085;BME280;62974;49.460;10.892;2023-05-11T02:23:57;97522.97;;;12.48;98.84
73085;BME280;62974;49.460;10.892;2023-05-11T02:26:26;97520.94;;;12.44;98.72
73085;BME280;62974;49.460;10.892;2023-05-11T02:28:54;97522.22;;;12.35;97.52
73085;BME280;62974;49.460;10.892;2023-05-11T02:31:24;97517.69;;;12.35;97.32
73085;BME280;62974;49.460;10.892;2023-05-11T02:33:58;97521.00;;;12.37;97.97
73085;BME280;62974;49.460;10.892;2023-05-11T02:36:28;97507.91;;;12.41;97.61
73085;BME280;62974;49.460;10.892;2023-05-11T02:39:01;97512.09;;;12.37;96.22
73085;BME280;62974;49.460;10.892;2023-05-11T02:41:30;97508.38;;;12.31;97.08
73085;BME280;62974;49.460;10.892;2023-05-11T02:44:00;97509.22;;;12.32;95.66
73085;BME280;62974;49.460;10.892;2023-05-11T02:46:32;97515.50;;;12.26;97.07
73085;BME280;62974;49.460;10.892;2023-05-11T02:49:04;97513.66;;;12.19;97.04
73085;BME280;62974;49.460;10.892;2023-05-11T02:51:36;97507.41;;;12.26;96.88
73085;BME280;62974;49.460;10.892;2023-05-11T02:54:05;97507.44;;;12.19;96.86
73085;BME280;62974;49.460;10.892;2023-05-11T02:56:35;97514.31;;;12.15;96.79
73085;BME280;62974;49.460;10.892;2023-05-11T02:59:03;97515.38;;;12.07;98.10
73085;BME280;62974;49.460;10.892;2023-05-11T03:01:32;97514.75;;;12.12;97.52
73085;BME280;62974;49.460;10.892;2023-05-11T03:04:02;97511.41;;;12.16;96.29
73085;BME280;62974;49.460;10.892;2023-05-11T03:06:30;97506.03;;;12.16;96.34
73085;BME280;62974;49.460;10.892;2023-05-11T03:09:00;97504.34;;;12.15;96.20
73085;BME280;62974;49.460;10.892;2023-05-11T03:11:28;97508.34;;;12.06;96.56
73085;BME280;62974;49.460;10.892;2023-05-11T03:13:56;97511.03;;;12.06;96.58
73085;BME280;62974;49.460;10.892;2023-05-11T03:16:24;97507.88;;;12.16;95.73
73085;BME280;62974;49.460;10.892;2023-05-11T03:18:53;97519.09;;;12.13;96.36
73085;BME280;62974;49.460;10.892;2023-05-11T03:21:22;97518.34;;;11.99;97.59
73085;BME280;62974;49.460;10.892;2023-05-11T03:23:50;97513.56;;;12.01;96.66
73085;BME280;62974;49.460;10.892;2023-05-11T03:26:19;97515.00;;;12.04;96.11
73085;BME280;62974;49.460;10.892;2023-05-11T03:28:49;97512.25;;;11.79;97.61
73085;BME280;62974;49.460;10.892;2023-05-11T03:31:18;97514.28;;;11.84;98.82
73085;BME280;62974;49.460;10.892;2023-05-11T03:33:46;97512.19;;;11.41;100.00
73085;BME280;62974;49.460;10.892;2023-05-11T03:36:13;97509.41;;;11.61;100.00
73085;BME280;62974;49.460;10.892;2023-05-11T03:38:41;97506.69;;;11.74;99.93
73085;BME280;62974;49.460;10.892;2023-05-11T03:41:13;97504.63;;;11.69;99.51
73085;BME280;62974;49.460;10.892;2023-05-11T03:43:44;97500.25;;;11.75;99.70
73085;BME280;62974;49.460;10.892;2023-05-11T03:46:18;97496.50;;;11.83;99.54
73085;BME280;62974;49.460;10.892;2023-05-11T03:48:47;97503.63;;;11.57;100.00
73085;BME280;62974;49.460;10.892;2023-05-11T03:51:15;97497.63;;;11.62;99.78
73085;BME280;62974;49.460;10.892;2023-05-11T03:53:43;97500.00;;;11.90;98.75
73085;BME280;62974;49.460;10.892;2023-05-11T03:56:10;97499.38;;;11.88;98.39
73085;BME280;62974;49.460;10.892;2023-05-11T03:58:39;97495.34;;;12.03;97.10
73085;BME280;62974;49.460;10.892;2023-05-11T04:01:08;97498.38;;;11.82;98.51
73085;BME280;62974;49.460;10.892;2023-05-11T04:03:46;97497.03;;;11.98;98.01
73085;BME280;62974;49.460;10.892;2023-05-11T04:06:15;97498.97;;;11.84;98.17
73085;BME280;62974;49.460;10.892;2023-05-11T04:08:42;97495.00;;;11.87;97.47
73085;BME280;62974;49.460;10.892;2023-05-11T04:11:10;97490.56;;;11.74;97.94
73085;BME280;62974;49.460;10.892;2023-05-11T04:13:38;97486.56;;;11.83;98.21
73085;BME280;62974;49.460;10.892;2023-05-11T04:16:07;97492.56;;;11.78;98.20
73085;BME280;62974;49.460;10.892;2023-05-11T04:18:35;97497.13;;;11.85;98.39
73085;BME280;62974;49.460;10.892;2023-05-11T04:21:03;97496.75;;;11.74;98.83
73085;BME280;62974;49.460;10.892;2023-05-11T04:23:31;97503.16;;;11.22;100.00
73085;BME280;62974;49.460;10.892;2023-05-11T04:25:58;97498.00;;;11.65;100.00
73085;BME280;62974;49.460;10.892;2023-05-11T04:28:26;97498.16;;;11.84;99.20
73085;BME280;62974;49.460;10.892;2023-05-11T04:30:55;97501.41;;;11.92;98.30
73085;BME280;62974;49.460;10.892;2023-05-11T04:33:25;97497.69;;;11.93;97.67
73085;BME280;62974;49.460;10.892;2023-05-11T04:35:53;97510.91;;;11.95;97.70
73085;BME280;62974;49.460;10.892;2023-05-11T04:38:21;97509.28;;;11.94;97.60
73085;BME280;62974;49.460;10.892;2023-05-11T04:40:49;97501.63;;;11.91;97.42
73085;BME280;62974;49.460;10.892;2023-05-11T04:43:16;97502.56;;;12.03;97.47
73085;BME280;62974;49.460;10.892;2023-05-11T04:45:46;97499.50;;;11.99;96.37
73085;BME280;62974;49.460;10.892;2023-05-11T04:48:14;97509.63;;;12.04;96.81
73085;BME280;62974;49.460;10.892;2023-05-11T04:50:47;97507.56;;;11.99;96.64
73085;BME280;62974;49.460;10.892;2023-05-11T04:53:14;97512.94;;;11.55;100.00
73085;BME280;62974;49.460;10.892;2023-05-11T04:55:42;97510.19;;;11.68;100.00
73085;BME280;62974;49.460;10.892;2023-05-11T04:58:09;97514.59;;;11.56;100.00
73085;BME280;62974;49.460;10.892;2023-05-11T05:00:37;97508.19;;;11.57;100.00
73085;BME280;62974;49.460;10.892;2023-05-11T05:03:04;97507.91;;;11.78;98.80
73085;BME280;62974;49.460;10.892;2023-05-11T05:05:32;97525.66;;;11.28;100.00
73085;BME280;62974;49.460;10.892;2023-05-11T05:08:01;97523.88;;;11.60;100.00
73085;BME280;62974;49.460;10.892;2023-05-11T05:10:28;97517.28;;;11.56;100.00
73085;BME280;62974;49.460;10.892;2023-05-11T05:12:56;97517.53;;;11.54;100.00
73085;BME280;62974;49.460;10.892;2023-05-11T05:15:23;97513.66;;;11.88;99.10
73085;BME280;62974;49.460;10.892;2023-05-11T05:17:51;97520.44;;;11.91;98.73
73085;BME280;62974;49.460;10.892;2023-05-11T05:20:19;97525.28;;;11.75;100.00
73085;BME280;62974;49.460;10.892;2023-05-11T05:22:46;97519.78;;;11.57;100.00
73085;BME280;62974;49.460;10.892;2023-05-11T05:25:15;97520.56;;;11.64;100.00
73085;BME280;62974;49.460;10.892;2023-05-11T05:27:43;97526.38;;;11.55;100.00
73085;BME280;62974;49.460;10.892;2023-05-11T05:30:11;97529.22;;;11.66;100.00
73085;BME280;62974;49.460;10.892;2023-05-11T05:32:38;97540.38;;;11.25;100.00
73085;BME280;62974;49.460;10.892;2023-05-11T05:35:06;97542.78;;;11.40;100.00
73085;BME280;62974;49.460;10.892;2023-05-11T05:37:34;97550.25;;;11.31;100.00
73085;BME280;62974;49.460;10.892;2023-05-11T05:40:03;97560.28;;;10.85;100.00
73085;BME280;62974;49.460;10.892;2023-05-11T05:42:32;97557.75;;;11.03;100.00
73085;BME280;62974;49.460;10.892;2023-05-11T05:44:59;97558.16;;;11.07;100.00
73085;BME280;62974;49.460;10.892;2023-05-11T05:47:27;97555.47;;;11.26;100.00
73085;BME280;62974;49.460;10.892;2023-05-11T05:49:54;97558.41;;;11.05;100.00
73085;BME280;62974;49.460;10.892;2023-05-11T05:52:22;97561.00;;;11.38;100.00
73085;BME280;62974;49.460;10.892;2023-05-11T05:54:49;97558.91;;;11.47;100.00
73085;BME280;62974;49.460;10.892;2023-05-11T05:57:17;97556.91;;;11.22;100.00
73085;BME280;62974;49.460;10.892;2023-05-11T05:59:45;97564.19;;;11.02;100.00
73085;BME280;62974;49.460;10.892;2023-05-11T06:02:13;97563.75;;;11.12;100.00
73085;BME280;62974;49.460;10.892;2023-05-11T06:04:41;97558.72;;;11.35;100.00
73085;BME280;62974;49.460;10.892;2023-05-11T06:07:09;97559.81;;;11.08;100.00
73085;BME280;62974;49.460;10.892;2023-05-11T06:09:36;97566.25;;;10.67;100.00
73085;BME280;62974;49.460;10.892;2023-05-11T06:12:05;97569.97;;;10.79;100.00
73085;BME280;62974;49.460;10.892;2023-05-11T06:14:32;97561.88;;;11.12;100.00
73085;BME280;62974;49.460;10.892;2023-05-11T06:17:01;97571.38;;;11.15;100.00
73085;BME280;62974;49.460;10.892;2023-05-11T06:19:29;97566.47;;;10.92;100.00
73085;BME280;62974;49.460;10.892;2023-05-11T06:21:56;97569.59;;;10.82;100.00
73085;BME280;62974;49.460;10.892;2023-05-11T06:24:24;97568.53;;;10.77;100.00
73085;BME280;62974;49.460;10.892;2023-05-11T06:26:51;97565.03;;;10.76;100.00
73085;BME280;62974;49.460;10.892;2023-05-11T06:29:19;97567.13;;;10.74;100.00
73085;BME280;62974;49.460;10.892;2023-05-11T06:31:47;97568.09;;;11.00;100.00
73085;BME280;62974;49.460;10.892;2023-05-11T06:34:19;97560.50;;;10.70;100.00
73085;BME280;62974;49.460;10.892;2023-05-11T06:36:47;97567.50;;;10.71;100.00
73085;BME280;62974;49.460;10.892;2023-05-11T06:39:14;97566.06;;;10.75;100.00
73085;BME280;62974;49.460;10.892;2023-05-11T06:41:42;97566.47;;;10.79;100.00
73085;BME280;62974;49.460;10.892;2023-05-11T06:44:09;97558.41;;;10.59;100.00
73085;BME280;62974;49.460;10.892;2023-05-11T06:46:38;97565.44;;;10.60;100.00
73085;BME280;62974;49.460;10.892;2023-05-11T06:49:06;97569.78;;;10.94;100.00
73085;BME280;62974;49.460;10.892;2023-05-11T06:51:35;97572.25;;;10.76;100.00
73085;BME280;62974;49.460;10.892;2023-05-11T06:54:03;97559.88;;;10.95;100.00
73085;BME280;62974;49.460;10.892;2023-05-11T06:56:30;97560.47;;;10.97;100.00
73085;BME280;62974;49.460;10.892;2023-05-11T06:58:59;97566.63;;;11.23;100.00
73085;BME280;62974;49.460;10.892;2023-05-11T07:01:26;97554.44;;;11.08;100.00
73085;BME280;62974;49.460;10.892;2023-05-11T07:03:54;97562.03;;;11.37;100.00
73085;BME280;62974;49.460;10.892;2023-05-11T07:06:22;97554.66;;;11.13;100.00
73085;BME280;62974;49.460;10.892;2023-05-11T07:08:50;97562.91;;;11.24;100.00
73085;BME280;62974;49.460;10.892;2023-05-11T07:11:18;97571.44;;;11.02;100.00
73085;BME280;62974;49.460;10.892;2023-05-11T07:13:48;97573.09;;;10.90;100.00
73085;BME280;62974;49.460;10.892;2023-05-11T07:16:16;97574.97;;;10.82;100.00
73085;BME280;62974;49.460;10.892;2023-05-11T07:18:43;97569.72;;;11.34;100.00
73085;BME280;62974;49.460;10.892;2023-05-11T07:21:11;97576.59;;;10.97;100.00
73085;BME280;62974;49.460;10.892;2023-05-11T07:23:38;97570.34;;;11.29;100.00
73085;BME280;62974;49.460;10.892;2023-05-11T07:26:07;97578.44;;;11.09;100.00
73085;BME280;62974;49.460;10.892;2023-05-11T07:28:35;97571.78;;;11.25;100.00
73085;BME280;62974;49.460;10.892;2023-05-11T07:31:03;97575.34;;;10.93;100.00
73085;BME280;62974;49.460;10.892;2023-05-11T07:33:31;97576.81;;;10.82;100.00
73085;BME280;62974;49.460;10.892;2023-05-11T07:35:59;97582.59;;;10.79;100.00
73085;BME280;62974;49.460;10.892;2023-05-11T07:38:27;97584.22;;;11.13;100.00
73085;BME280;62974;49.460;10.892;2023-05-11T07:40:54;97579.47;;;11.08;100.00
73085;BME280;62974;49.460;10.892;2023-05-11T07:43:23;97581.13;;;11.09;100.00
73085;BME280;62974;49.460;10.892;2023-05-11T07:45:51;97576.97;;;11.07;100.00
73085;BME280;62974;49.460;10.892;2023-05-11T07:48:18;97578.88;;;11.06;100.00
73085;BME280;62974;49.460;10.892;2023-05-11T07:50:46;97576.97;;;11.07;100.00
73085;BME280;62974;49.460;10.892;2023-05-11T07:53:14;97578.03;;;10.93;100.00
73085;BME280;62974;49.460;10.892;2023-05-11T07:55:42;97575.34;;;10.99;100.00
73085;BME280;62974;49.460;10.892;2023-05-11T07:58:09;97571.38;;;11.15;100.00
73085;BME280;62974;49.460;10.892;2023-05-11T08:00:38;97569.94;;;11.19;100.00
73085;BME280;62974;49.460;10.892;2023-05-11T08:03:06;97576.59;;;10.90;100.00
73085;BME280;62974;49.460;10.892;2023-05-11T08:05:33;97572.84;;;11.04;100.00
73085;BME280;62974;49.460;10.892;2023-05-11T08:08:03;97575.53;;;11.04;100.00
73085;BME280;62974;49.460;10.892;2023-05-11T08:10:31;97575.13;;;10.88;100.00
73085;BME280;62974;49.460;10.892;2023-05-11T08:12:58;97581.97;;;10.90;100.00
73085;BME280;62974;49.460;10.892;2023-05-11T08:15:26;97578.00;;;11.19;100.00
73085;BME280;62974;49.460;10.892;2023-05-11T08:17:55;97579.22;;;11.29;100.00
73085;BME280;62974;49.460;10.892;2023-05-11T08:20:23;97580.59;;;11.52;100.00
73085;BME280;62974;49.460;10.892;2023-05-11T08:22:50;97574.91;;;11.22;100.00
73085;BME280;62974;49.460;10.892;2023-05-11T08:25:18;97586.84;;;11.39;100.00
73085;BME280;62974;49.460;10.892;2023-05-11T08:27:46;97570.75;;;11.26;100.00
73085;BME280;62974;49.460;10.892;2023-05-11T08:30:13;97579.59;;;11.46;100.00
73085;BME280;62974;49.460;10.892;2023-05-11T08:32:43;97585.38;;;11.43;100.00
73085;BME280;62974;49.460;10.892;2023-05-11T08:35:15;97583.56;;;11.30;100.00
73085;BME280;62974;49.460;10.892;2023-05-11T08:37:42;97577.75;;;11.40;100.00
73085;BME280;62974;49.460;10.892;2023-05-11T08:40:11;97574.91;;;11.22;100.00
73085;BME280;62974;49.460;10.892;2023-05-11T08:42:41;97583.16;;;11.27;100.00
73085;BME280;62974;49.460;10.892;2023-05-11T08:45:12;97583.81;;;11.22;100.00
73085;BME280;62974;49.460;10.892;2023-05-11T08:47:40;97580.84;;;11.44;100.00
73085;BME280;62974;49.460;10.892;2023-05-11T08:50:08;97579.84;;;11.25;100.00
73085;BME280;62974;49.460;10.892;2023-05-11T08:52:37;97572.53;;;11.52;100.00
73085;BME280;62974;49.460;10.892;2023-05-11T08:55:07;97573.75;;;11.56;100.00
73085;BME280;62974;49.460;10.892;2023-05-11T08:57:35;97570.53;;;11.27;100.00
73085;BME280;62974;49.460;10.892;2023-05-11T09:00:03;97574.06;;;11.28;100.00
73085;BME280;62974;49.460;10.892;2023-05-11T09:02:30;97574.88;;;11.28;100.00
73085;BME280;62974;49.460;10.892;2023-05-11T09:04:58;97574.66;;;11.37;100.00
73085;BME280;62974;49.460;10.892;2023-05-11T09:07:30;97580.84;;;11.50;100.00
73085;BME280;62974;49.460;10.892;2023-05-11T09:09:59;97574.69;;;11.30;100.00
73085;BME280;62974;49.460;10.892;2023-05-11T09:12:27;97579.66;;;11.26;100.00
73085;BME280;62974;49.460;10.892;2023-05-11T09:14:56;97575.78;;;11.67;100.00
73085;BME280;62974;49.460;10.892;2023-05-11T09:17:27;97577.88;;;11.78;100.00
73085;BME280;62974;49.460;10.892;2023-05-11T09:19:59;97575.06;;;11.40;100.00
73085;BME280;62974;49.460;10.892;2023-05-11T09:22:27;97577.50;;;11.48;100.00
73085;BME280;62974;49.460;10.892;2023-05-11T09:25:00;97576.09;;;11.39;100.00
73085;BME280;62974;49.460;10.892;2023-05-11T09:27:29;97573.63;;;11.31;100.00
73085;BME280;62974;49.460;10.892;2023-05-11T09:30:09;97580.63;;;11.45;100.00
73085;BME280;62974;49.460;10.892;2023-05-11T09:32:45;97578.56;;;11.41;100.00
73085;BME280;62974;49.460;10.892;2023-05-11T09:35:21;97571.56;;;11.33;100.00
73085;BME280;62974;49.460;10.892;2023-05-11T09:37:59;97569.69;;;11.40;100.00
73085;BME280;62974;49.460;10.892;2023-05-11T09:40:29;97573.75;;;11.56;100.00
73085;BME280;62974;49.460;10.892;2023-05-11T09:43:00;97567.63;;;11.42;100.00
73085;BME280;62974;49.460;10.892;2023-05-11T09:45:36;97573.56;;;11.51;100.00
73085;BME280;62974;49.460;10.892;2023-05-11T09:48:05;97569.06;;;11.31;100.00
73085;BME280;62974;49.460;10.892;2023-05-11T09:50:34;97571.31;;;11.48;100.00
73085;BME280;62974;49.460;10.892;2023-05-11T09:53:02;97566.91;;;11.60;100.00
73085;BME280;62974;49.460;10.892;2023-05-11T09:55:31;97567.56;;;11.62;100.00
73085;BME280;62974;49.460;10.892;2023-05-11T09:57:58;97565.91;;;11.61;100.00
73085;BME280;62974;49.460;10.892;2023-05-11T10:00:26;97568.34;;;11.75;100.00
73085;BME280;62974;49.460;10.892;2023-05-11T10:03:04;97561.19;;;11.43;100.00
73085;BME280;62974;49.460;10.892;2023-05-11T10:05:33;97565.16;;;11.34;100.00
73085;BME280;62974;49.460;10.892;2023-05-11T10:08:03;97573.00;;;11.42;100.00
73085;BME280;62974;49.460;10.892;2023-05-11T10:10:33;97564.31;;;11.40;100.00
73085;BME280;62974;49.460;10.892;2023-05-11T10:13:01;97567.38;;;11.50;100.00
73085;BME280;62974;49.460;10.892;2023-05-11T10:15:31;97569.03;;;11.51;100.00
73085;BME280;62974;49.460;10.892;2023-05-11T10:18:00;97552.53;;;11.41;100.00
73085;BME280;62974;49.460;10.892;2023-05-11T10:20:28;97557.91;;;11.28;100.00
73085;BME280;62974;49.460;10.892;2023-05-11T10:22:56;97556.88;;;11.42;100.00
73085;BME280;62974;49.460;10.892;2023-05-11T10:25:25;97556.41;;;11.58;100.00
73085;BME280;62974;49.460;10.892;2023-05-11T10:27:54;97556.25;;;11.34;100.00
73085;BME280;62974;49.460;10.892;2023-05-11T10:30:23;97558.97;;;11.34;100.00
73085;BME280;62974;49.460;10.892;2023-05-11T10:32:51;97552.25;;;11.56;100.00
73085;BME280;62974;49.460;10.892;2023-05-11T10:35:20;97550.59;;;11.61;100.00
73085;BME280;62974;49.460;10.892;2023-05-11T10:37:47;97543.34;;;11.55;100.00
73085;BME280;62974;49.460;10.892;2023-05-11T10:40:15;97545.63;;;11.58;100.00
73085;BME280;62974;49.460;10.892;2023-05-11T10:43:02;97546.22;;;11.73;100.00
73085;BME280;62974;49.460;10.892;2023-05-11T10:45:41;97542.22;;;11.83;100.00
73085;BME280;62974;49.460;10.892;2023-05-11T10:48:30;97547.97;;;11.93;100.00
73085;BME280;62974;49.460;10.892;2023-05-11T10:51:00;97534.59;;;11.80;100.00
73085;BME280;62974;49.460;10.892;2023-05-11T10:53:45;97533.44;;;11.56;100.00
73085;BME280;62974;49.460;10.892;2023-05-11T10:56:28;97534.00;;;11.64;100.00
73085;BME280;62974;49.460;10.892;2023-05-11T10:59:24;97541.22;;;11.70;100.00
73085;BME280;62974;49.460;10.892;2023-05-11T11:01:56;97532.75;;;11.67;100.00
73085;BME280;62974;49.460;10.892;2023-05-11T11:04:40;97531.56;;;11.56;100.00
73085;BME280;62974;49.460;10.892;2023-05-11T11:07:08;97536.84;;;11.83;100.00
73085;BME280;62974;49.460;10.892;2023-05-11T11:09:49;97534.22;;;11.69;100.00
73085;BME280;62974;49.460;10.892;2023-05-11T11:12:18;97530.13;;;11.54;100.00
73085;BME280;62974;49.460;10.892;2023-05-11T11:14:55;97527.25;;;11.49;100.00
73085;BME280;62974;49.460;10.892;2023-05-11T11:17:25;97538.84;;;11.43;100.00
73085;BME280;62974;49.460;10.892;2023-05-11T11:19:55;97533.03;;;11.52;100.00
73085;BME280;62974;49.460;10.892;2023-05-11T11:22:43;97526.38;;;11.55;100.00
73085;BME280;62974;49.460;10.892;2023-05-11T11:25:13;97532.00;;;11.53;100.00
73085;BME280;62974;49.460;10.892;2023-05-11T11:27:55;97537.03;;;11.37;100.00
73085;BME280;62974;49.460;10.892;2023-05-11T11:30:26;97519.00;;;11.44;100.00
73085;BME280;62974;49.460;10.892;2023-05-11T11:33:31;97535.72;;;11.52;100.00
73085;BME280;62974;49.460;10.892;2023-05-11T11:36:00;97535.13;;;11.44;100.00
73085;BME280;62974;49.460;10.892;2023-05-11T11:38:29;97543.00;;;11.39;100.00
73085;BME280;62974;49.460;10.892;2023-05-11T11:40:57;97537.97;;;11.55;100.00
73085;BME280;62974;49.460;10.892;2023-05-11T11:43:26;97534.22;;;11.69;100.00
73085;BME280;62974;49.460;10.892;2023-05-11T11:45:56;97530.97;;;11.54;100.00
73085;BME280;62974;49.460;10.892;2023-05-11T11:48:28;97538.97;;;11.74;100.00
73085;BME280;62974;49.460;10.892;2023-05-11T11:51:00;97540.63;;;11.68;100.00
73085;BME280;62974;49.460;10.892;2023-05-11T11:54:02;97539.56;;;11.76;100.00
73085;BME280;62974;49.460;10.892;2023-05-11T11:56:43;97540.84;;;11.73;100.00
73085;BME280;62974;49.460;10.892;2023-05-11T11:59:11;97533.03;;;11.52;100.00
73085;BME280;62974;49.460;10.892;2023-05-11T12:01:43;97540.91;;;11.47;100.00
73085;BME280;62974;49.460;10.892;2023-05-11T12:04:20;97539.78;;;11.81;100.00
73085;BME280;62974;49.460;10.892;2023-05-11T12:06:55;97532.84;;;11.54;100.00
73085;BME280;62974;49.460;10.892;2023-05-11T12:09:24;97540.25;;;11.58;100.00
73085;BME280;62974;49.460;10.892;2023-05-11T12:11:52;97537.97;;;11.55;100.00
73085;BME280;62974;49.460;10.892;2023-05-11T12:14:21;97552.94;;;11.38;100.00
73085;BME280;62974;49.460;10.892;2023-05-11T12:17:01;97551.03;;;11.52;100.00
73085;BME280;62974;49.460;10.892;2023-05-11T12:19:29;97552.88;;;11.51;100.00
73085;BME280;62974;49.460;10.892;2023-05-11T12:21:57;97543.84;;;11.32;100.00
73085;BME280;62974;49.460;10.892;2023-05-11T12:24:25;97557.13;;;11.21;100.00
73085;BME280;62974;49.460;10.892;2023-05-11T12:26:56;97561.00;;;11.38;100.00
73085;BME280;62974;49.460;10.892;2023-05-11T12:29:24;97555.50;;;11.71;100.00
73085;BME280;62974;49.460;10.892;2023-05-11T12:31:52;97547.66;;;11.63;100.00
73085;BME280;62974;49.460;10.892;2023-05-11T12:34:21;97539.28;;;11.46;100.00
73085;BME280;62974;49.460;10.892;2023-05-11T12:36:51;97549.59;;;11.43;100.00
73085;BME280;62974;49.460;10.892;2023-05-11T12:39:20;97549.50;;;11.75;100.00
73085;BME280;62974;49.460;10.892;2023-05-11T12:41:49;97538.56;;;11.64;100.00
73085;BME280;62974;49.460;10.892;2023-05-11T12:44:22;97547.13;;;11.41;100.00
73085;BME280;62974;49.460;10.892;2023-05-11T12:46:50;97548.38;;;11.45;100.00
73085;BME280;62974;49.460;10.892;2023-05-11T12:49:19;97535.13;;;11.50;100.00
73085;BME280;62974;49.460;10.892;2023-05-11T12:52:00;97542.16;;;11.96;100.00
73085;BME280;62974;49.460;10.892;2023-05-11T12:54:30;97546.63;;;11.64;100.00
73085;BME280;62974;49.460;10.892;2023-05-11T12:56:59;97544.34;;;11.67;100.00
73085;BME280;62974;49.460;10.892;2023-05-11T12:59:29;97556.34;;;11.78;100.00